메인 페이지
METAR-TAF:

METAR-TAF

공항 :

파아아 국제공항

타히티, 프랑스령 폴리네시아

위도: 17-33S, 경도: 149-37W, 고도: 2m

현재 날씨관측

예보는 15분 전, 03:00시(UTC)에 발표되었습니다.
여러 방향의 바람 2kt
온도 29°C
습도 62%
기압 1013 hPa
시정 10km 이상
고도 2600ft 상공 구름 조금
고도 4000ft 상공 구름 보통

METAR: NTAA 210300Z VRB02KT 9999 FEW026 SCT040 29/21 Q1013 NOSIG

시각: 17:15 (03:15 UTC)

예보

예보는 4 시간 15분 전, 23:00시(UTC)에 발표되었습니다.
예보 대상 시간: 21일 00시부터 22일 06시까지 (UTC)
여러 방향의 바람 5kt
시정 10km 이상
고도 2500ft 상공 구름 조금
고도 30000ft 상공 구름 보통
확률 30% :
일시적
21일 00시부터 21일 04시까지 (UTC)
동북동15kt
확률 30% :
일시적
21일 20시부터 22일 04시까지 (UTC)
동북동13kt

TAF: NTAA 202300Z 2100/2206 VRB05KT 9999 FEW025 SCT300 PROB30 TEMPO 2100/2104 06015KT PROB30 TEMPO 2120/2204 06013KT

4,000개 이상의 공항 관측 자료 및 예보 (METAR 및 TAF 보고).

지도상에서 검색 가능한 기상관측소가 노란 점과 빨간 점으로 표시되어 있습니다.

기상관측소 명을 보려면 표시 위로 마우스를 이동하세요.

날씨 관측과 예보를 보려면 클릭하세요.

지도 변경 : 확대하려면 엑스 표시가 있는 녹색 버튼, 축소하려면 빼기 표시가 있는 녹색 버튼, 다음 페이지의 지도를 보려면 녹색 화살표를 클릭하세요.


METAR-TAF: